Terminal Aerodrome Forecast
Issued by NWS El Paso, TX

Home | Current Version | Previous Version | Text Only | Print | Product List | Glossary On
Versions: 1 2 3 4 5 6 7 8 9 10 11 12
154
FTUS44 KEPZ 191738
TAFELP
TAF
KELP 191738Z 1918/2018 12015G25KT P6SM FEW100 SCT250
     FM200200 12018G26KT P6SM VCTS SCT090CB BKN200
     FM200800 18011KT P6SM FEW100 FEW250
     FM201300 25015G25KT P6SM FEW250
     FM201600 24020G30KT P6SM FEW250=

USA.gov is the U.S. government's official web portal to all federal, state and local government web resources and services.